Main page
METAR-TAF:

METAR-TAF

Airports :

Wittmundhafen Air Base

Wittmund, Germany

latitude: 53-33N, longitude: 007-40E, elevation: 8 m

Current weather observation

The report was made 30 minutes ago, at 06:20 UTC
Wind 2 kt from the South/Southeast
Temperature 14°C
Humidity 100%
Pressure 1009 hPa
Visibility: 9000 m
Few clouds at a height of 4000 ft
Broken clouds at a height of 11000 ft

METAR: ETNT 170620Z 16002KT 9000 FEW040 BKN110 14/14 Q1009 BLACKBLU

Time: 08:50 (06:50 UTC)


TAF: missing

Weather observations and forecasts of more than 4000 airports (METAR and TAF reports).

The available stations are represented by yellow and red dots on the map.

Hover mouse over dot to see the name of the station.

Then click to see weather observations and forecasts.

To change the map : click on the green buttons with a black cross to zoom in, on the green button with a dash to zoom out, or on the green arrows for adjacent maps.


METAR-TAF: